sensor_id;sensor_type;location;lat;lon;timestamp;P1;durP1;ratioP1;P2;durP2;ratioP2
69185;SDS011;56298;49.246;9.410;2023-10-31T00:01:45;3.27;;;0.63;;
69185;SDS011;56298;49.246;9.410;2023-10-31T00:04:10;3.97;;;0.80;;
69185;SDS011;56298;49.246;9.410;2023-10-31T00:06:35;3.43;;;0.70;;
69185;SDS011;56298;49.246;9.410;2023-10-31T00:09:01;3.43;;;0.70;;
69185;SDS011;56298;49.246;9.410;2023-10-31T00:11:26;3.60;;;0.57;;
69185;SDS011;56298;49.246;9.410;2023-10-31T00:13:51;3.10;;;0.60;;
69185;SDS011;56298;49.246;9.410;2023-10-31T00:16:16;2.77;;;0.60;;
69185;SDS011;56298;49.246;9.410;2023-10-31T00:18:42;2.80;;;0.70;;
69185;SDS011;56298;49.246;9.410;2023-10-31T00:21:07;2.80;;;0.60;;
69185;SDS011;56298;49.246;9.410;2023-10-31T00:23:32;3.13;;;0.60;;
69185;SDS011;56298;49.246;9.410;2023-10-31T00:25:57;3.13;;;0.60;;
69185;SDS011;56298;49.246;9.410;2023-10-31T00:28:23;2.60;;;0.70;;
69185;SDS011;56298;49.246;9.410;2023-10-31T00:30:48;3.20;;;0.70;;
69185;SDS011;56298;49.246;9.410;2023-10-31T00:33:13;2.92;;;0.52;;
69185;SDS011;56298;49.246;9.410;2023-10-31T00:35:39;2.83;;;0.50;;
69185;SDS011;56298;49.246;9.410;2023-10-31T00:38:04;2.70;;;0.70;;
69185;SDS011;56298;49.246;9.410;2023-10-31T00:40:29;2.70;;;0.50;;
69185;SDS011;56298;49.246;9.410;2023-10-31T00:42:54;4.23;;;0.67;;
69185;SDS011;56298;49.246;9.410;2023-10-31T00:45:23;2.90;;;0.60;;
69185;SDS011;56298;49.246;9.410;2023-10-31T00:47:48;3.53;;;0.60;;
69185;SDS011;56298;49.246;9.410;2023-10-31T00:50:13;3.07;;;0.63;;
69185;SDS011;56298;49.246;9.410;2023-10-31T00:52:39;2.95;;;0.70;;
69185;SDS011;56298;49.246;9.410;2023-10-31T00:55:04;2.97;;;0.60;;
69185;SDS011;56298;49.246;9.410;2023-10-31T00:57:30;3.00;;;0.70;;
69185;SDS011;56298;49.246;9.410;2023-10-31T00:59:55;3.40;;;0.70;;
69185;SDS011;56298;49.246;9.410;2023-10-31T01:02:20;3.07;;;0.70;;
69185;SDS011;56298;49.246;9.410;2023-10-31T01:04:45;3.30;;;0.83;;
69185;SDS011;56298;49.246;9.410;2023-10-31T01:07:10;4.33;;;1.10;;
69185;SDS011;56298;49.246;9.410;2023-10-31T01:09:37;3.05;;;0.82;;
69185;SDS011;56298;49.246;9.410;2023-10-31T01:12:03;3.15;;;0.73;;
69185;SDS011;56298;49.246;9.410;2023-10-31T01:14:29;3.35;;;0.90;;
69185;SDS011;56298;49.246;9.410;2023-10-31T01:16:55;3.57;;;0.90;;
69185;SDS011;56298;49.246;9.410;2023-10-31T01:19:20;4.10;;;1.10;;
69185;SDS011;56298;49.246;9.410;2023-10-31T01:21:45;4.00;;;1.10;;
69185;SDS011;56298;49.246;9.410;2023-10-31T01:24:10;4.10;;;1.20;;
69185;SDS011;56298;49.246;9.410;2023-10-31T01:26:36;3.53;;;1.20;;
69185;SDS011;56298;49.246;9.410;2023-10-31T01:29:01;3.63;;;1.33;;
69185;SDS011;56298;49.246;9.410;2023-10-31T01:31:26;3.70;;;1.20;;
69185;SDS011;56298;49.246;9.410;2023-10-31T01:33:51;3.93;;;1.10;;
69185;SDS011;56298;49.246;9.410;2023-10-31T01:36:17;4.10;;;1.30;;
69185;SDS011;56298;49.246;9.410;2023-10-31T01:38:43;4.17;;;1.30;;
69185;SDS011;56298;49.246;9.410;2023-10-31T01:41:08;4.50;;;1.50;;
69185;SDS011;56298;49.246;9.410;2023-10-31T01:43:34;5.05;;;1.40;;
69185;SDS011;56298;49.246;9.410;2023-10-31T01:46:01;4.32;;;1.30;;
69185;SDS011;56298;49.246;9.410;2023-10-31T01:48:27;4.00;;;1.60;;
69185;SDS011;56298;49.246;9.410;2023-10-31T01:50:55;4.85;;;1.55;;
69185;SDS011;56298;49.246;9.410;2023-10-31T01:53:21;4.35;;;1.45;;
69185;SDS011;56298;49.246;9.410;2023-10-31T01:55:47;4.57;;;1.47;;
69185;SDS011;56298;49.246;9.410;2023-10-31T01:58:13;4.10;;;1.50;;
69185;SDS011;56298;49.246;9.410;2023-10-31T02:00:39;4.23;;;1.40;;
69185;SDS011;56298;49.246;9.410;2023-10-31T02:03:06;3.80;;;1.37;;
69185;SDS011;56298;49.246;9.410;2023-10-31T02:05:32;5.20;;;1.27;;
69185;SDS011;56298;49.246;9.410;2023-10-31T02:07:59;4.60;;;0.90;;
69185;SDS011;56298;49.246;9.410;2023-10-31T02:10:25;4.03;;;1.00;;
69185;SDS011;56298;49.246;9.410;2023-10-31T02:12:50;4.40;;;0.87;;
69185;SDS011;56298;49.246;9.410;2023-10-31T02:15:15;3.53;;;0.90;;
69185;SDS011;56298;49.246;9.410;2023-10-31T02:17:40;4.67;;;0.93;;
69185;SDS011;56298;49.246;9.410;2023-10-31T02:20:06;3.70;;;0.80;;
69185;SDS011;56298;49.246;9.410;2023-10-31T02:22:31;3.63;;;0.93;;
69185;SDS011;56298;49.246;9.410;2023-10-31T02:24:57;4.70;;;0.90;;
69185;SDS011;56298;49.246;9.410;2023-10-31T02:27:22;3.63;;;0.70;;
69185;SDS011;56298;49.246;9.410;2023-10-31T02:29:47;4.27;;;0.93;;
69185;SDS011;56298;49.246;9.410;2023-10-31T02:32:12;5.18;;;0.77;;
69185;SDS011;56298;49.246;9.410;2023-10-31T02:34:38;4.20;;;0.80;;
69185;SDS011;56298;49.246;9.410;2023-10-31T02:37:03;3.03;;;0.80;;
69185;SDS011;56298;49.246;9.410;2023-10-31T02:39:28;3.80;;;0.80;;
69185;SDS011;56298;49.246;9.410;2023-10-31T02:41:53;3.47;;;0.53;;
69185;SDS011;56298;49.246;9.410;2023-10-31T02:44:19;4.50;;;0.80;;
69185;SDS011;56298;49.246;9.410;2023-10-31T02:46:44;6.47;;;0.60;;
69185;SDS011;56298;49.246;9.410;2023-10-31T02:49:09;3.30;;;0.70;;
69185;SDS011;56298;49.246;9.410;2023-10-31T02:51:35;3.90;;;0.70;;
69185;SDS011;56298;49.246;9.410;2023-10-31T02:54:00;3.00;;;0.63;;
69185;SDS011;56298;49.246;9.410;2023-10-31T02:56:26;2.90;;;0.60;;
69185;SDS011;56298;49.246;9.410;2023-10-31T02:58:51;4.03;;;0.60;;
69185;SDS011;56298;49.246;9.410;2023-10-31T03:01:16;4.47;;;0.67;;
69185;SDS011;56298;49.246;9.410;2023-10-31T03:03:42;2.90;;;0.60;;
69185;SDS011;56298;49.246;9.410;2023-10-31T03:06:08;5.33;;;0.60;;
69185;SDS011;56298;49.246;9.410;2023-10-31T03:08:33;3.13;;;0.50;;
69185;SDS011;56298;49.246;9.410;2023-10-31T03:10:58;2.63;;;0.50;;
69185;SDS011;56298;49.246;9.410;2023-10-31T03:13:24;4.70;;;0.60;;
69185;SDS011;56298;49.246;9.410;2023-10-31T03:15:49;3.23;;;0.50;;
69185;SDS011;56298;49.246;9.410;2023-10-31T03:18:14;3.27;;;0.40;;
69185;SDS011;56298;49.246;9.410;2023-10-31T03:20:40;3.40;;;0.60;;
69185;SDS011;56298;49.246;9.410;2023-10-31T03:23:05;3.53;;;0.50;;
69185;SDS011;56298;49.246;9.410;2023-10-31T03:25:31;3.70;;;0.60;;
69185;SDS011;56298;49.246;9.410;2023-10-31T03:27:56;3.80;;;0.60;;
69185;SDS011;56298;49.246;9.410;2023-10-31T03:30:21;3.93;;;0.50;;
69185;SDS011;56298;49.246;9.410;2023-10-31T03:32:47;4.30;;;0.57;;
69185;SDS011;56298;49.246;9.410;2023-10-31T03:35:12;3.37;;;0.60;;
69185;SDS011;56298;49.246;9.410;2023-10-31T03:37:37;4.47;;;0.73;;
69185;SDS011;56298;49.246;9.410;2023-10-31T03:40:06;2.92;;;0.60;;
69185;SDS011;56298;49.246;9.410;2023-10-31T03:42:33;3.63;;;0.50;;
69185;SDS011;56298;49.246;9.410;2023-10-31T03:44:59;3.53;;;0.70;;
69185;SDS011;56298;49.246;9.410;2023-10-31T03:47:24;2.67;;;0.50;;
69185;SDS011;56298;49.246;9.410;2023-10-31T03:49:49;3.70;;;0.50;;
69185;SDS011;56298;49.246;9.410;2023-10-31T03:52:14;3.30;;;0.50;;
69185;SDS011;56298;49.246;9.410;2023-10-31T03:54:40;2.97;;;0.50;;
69185;SDS011;56298;49.246;9.410;2023-10-31T03:57:05;4.33;;;0.60;;
69185;SDS011;56298;49.246;9.410;2023-10-31T03:59:30;2.70;;;0.50;;
69185;SDS011;56298;49.246;9.410;2023-10-31T04:01:55;4.47;;;0.50;;
69185;SDS011;56298;49.246;9.410;2023-10-31T04:04:21;2.53;;;0.40;;
69185;SDS011;56298;49.246;9.410;2023-10-31T04:06:46;2.20;;;0.37;;
69185;SDS011;56298;49.246;9.410;2023-10-31T04:09:11;4.15;;;0.55;;
69185;SDS011;56298;49.246;9.410;2023-10-31T04:11:37;3.37;;;0.50;;
69185;SDS011;56298;49.246;9.410;2023-10-31T04:14:03;3.33;;;0.50;;
69185;SDS011;56298;49.246;9.410;2023-10-31T04:16:29;3.53;;;0.55;;
69185;SDS011;56298;49.246;9.410;2023-10-31T04:18:54;2.70;;;0.50;;
69185;SDS011;56298;49.246;9.410;2023-10-31T04:21:19;2.87;;;0.40;;
69185;SDS011;56298;49.246;9.410;2023-10-31T04:23:44;3.08;;;0.50;;
69185;SDS011;56298;49.246;9.410;2023-10-31T04:26:10;2.50;;;0.50;;
69185;SDS011;56298;49.246;9.410;2023-10-31T04:28:35;4.90;;;0.87;;
69185;SDS011;56298;49.246;9.410;2023-10-31T04:31:00;3.27;;;0.70;;
69185;SDS011;56298;49.246;9.410;2023-10-31T04:33:26;2.70;;;0.50;;
69185;SDS011;56298;49.246;9.410;2023-10-31T04:35:51;3.03;;;0.60;;
69185;SDS011;56298;49.246;9.410;2023-10-31T04:38:16;2.90;;;0.50;;
69185;SDS011;56298;49.246;9.410;2023-10-31T04:40:41;3.60;;;0.50;;
69185;SDS011;56298;49.246;9.410;2023-10-31T04:43:07;3.00;;;0.50;;
69185;SDS011;56298;49.246;9.410;2023-10-31T04:45:32;3.50;;;0.47;;
69185;SDS011;56298;49.246;9.410;2023-10-31T04:47:58;3.90;;;0.60;;
69185;SDS011;56298;49.246;9.410;2023-10-31T04:50:23;2.30;;;0.40;;
69185;SDS011;56298;49.246;9.410;2023-10-31T04:52:48;3.78;;;0.57;;
69185;SDS011;56298;49.246;9.410;2023-10-31T04:55:13;3.27;;;0.50;;
69185;SDS011;56298;49.246;9.410;2023-10-31T04:57:39;3.40;;;0.50;;
69185;SDS011;56298;49.246;9.410;2023-10-31T05:00:05;4.22;;;0.50;;
69185;SDS011;56298;49.246;9.410;2023-10-31T05:02:31;3.30;;;0.50;;
69185;SDS011;56298;49.246;9.410;2023-10-31T05:04:57;3.63;;;0.50;;
69185;SDS011;56298;49.246;9.410;2023-10-31T05:07:23;3.50;;;0.50;;
69185;SDS011;56298;49.246;9.410;2023-10-31T05:09:48;3.60;;;0.52;;
69185;SDS011;56298;49.246;9.410;2023-10-31T05:12:14;2.97;;;0.43;;
69185;SDS011;56298;49.246;9.410;2023-10-31T05:14:39;3.50;;;0.50;;
69185;SDS011;56298;49.246;9.410;2023-10-31T05:17:05;3.47;;;0.50;;
69185;SDS011;56298;49.246;9.410;2023-10-31T05:19:30;4.87;;;0.70;;
69185;SDS011;56298;49.246;9.410;2023-10-31T05:21:55;5.10;;;1.20;;
69185;SDS011;56298;49.246;9.410;2023-10-31T05:24:21;4.23;;;1.17;;
69185;SDS011;56298;49.246;9.410;2023-10-31T05:26:46;3.63;;;0.77;;
69185;SDS011;56298;49.246;9.410;2023-10-31T05:29:11;2.60;;;0.50;;
69185;SDS011;56298;49.246;9.410;2023-10-31T05:31:37;3.13;;;0.50;;
69185;SDS011;56298;49.246;9.410;2023-10-31T05:34:02;3.83;;;0.60;;
69185;SDS011;56298;49.246;9.410;2023-10-31T05:36:31;3.03;;;0.60;;
69185;SDS011;56298;49.246;9.410;2023-10-31T05:38:57;3.45;;;0.50;;
69185;SDS011;56298;49.246;9.410;2023-10-31T05:41:22;3.37;;;0.53;;
69185;SDS011;56298;49.246;9.410;2023-10-31T05:43:47;3.78;;;0.55;;
69185;SDS011;56298;49.246;9.410;2023-10-31T05:46:13;4.63;;;0.70;;
69185;SDS011;56298;49.246;9.410;2023-10-31T05:48:39;3.50;;;0.60;;
69185;SDS011;56298;49.246;9.410;2023-10-31T05:51:16;4.23;;;0.60;;
69185;SDS011;56298;49.246;9.410;2023-10-31T05:53:43;3.42;;;0.50;;
69185;SDS011;56298;49.246;9.410;2023-10-31T05:56:11;3.47;;;0.60;;
69185;SDS011;56298;49.246;9.410;2023-10-31T05:58:39;3.70;;;0.70;;
69185;SDS011;56298;49.246;9.410;2023-10-31T06:01:04;4.53;;;0.65;;
69185;SDS011;56298;49.246;9.410;2023-10-31T06:03:30;3.45;;;0.57;;
69185;SDS011;56298;49.246;9.410;2023-10-31T06:05:56;3.75;;;0.50;;
69185;SDS011;56298;49.246;9.410;2023-10-31T06:08:21;2.73;;;0.60;;
69185;SDS011;56298;49.246;9.410;2023-10-31T06:10:49;3.33;;;0.68;;
69185;SDS011;56298;49.246;9.410;2023-10-31T06:13:14;4.03;;;0.80;;
69185;SDS011;56298;49.246;9.410;2023-10-31T06:15:39;3.97;;;0.80;;
69185;SDS011;56298;49.246;9.410;2023-10-31T06:18:04;3.97;;;0.83;;
69185;SDS011;56298;49.246;9.410;2023-10-31T06:20:30;3.30;;;0.70;;
69185;SDS011;56298;49.246;9.410;2023-10-31T06:22:56;2.70;;;0.67;;
69185;SDS011;56298;49.246;9.410;2023-10-31T06:25:21;4.13;;;0.67;;
69185;SDS011;56298;49.246;9.410;2023-10-31T06:27:46;4.17;;;0.50;;
69185;SDS011;56298;49.246;9.410;2023-10-31T06:30:12;3.00;;;0.50;;
69185;SDS011;56298;49.246;9.410;2023-10-31T06:32:38;4.80;;;0.70;;
69185;SDS011;56298;49.246;9.410;2023-10-31T06:35:05;4.57;;;0.75;;
69185;SDS011;56298;49.246;9.410;2023-10-31T06:37:31;3.07;;;0.60;;
69185;SDS011;56298;49.246;9.410;2023-10-31T06:39:56;4.43;;;0.80;;
69185;SDS011;56298;49.246;9.410;2023-10-31T06:42:22;3.93;;;0.70;;
69185;SDS011;56298;49.246;9.410;2023-10-31T06:44:47;2.63;;;0.50;;
69185;SDS011;56298;49.246;9.410;2023-10-31T06:47:12;3.50;;;0.53;;
69185;SDS011;56298;49.246;9.410;2023-10-31T06:49:37;2.90;;;0.67;;
69185;SDS011;56298;49.246;9.410;2023-10-31T06:52:03;11.10;;;4.03;;
69185;SDS011;56298;49.246;9.410;2023-10-31T06:54:30;9.00;;;3.00;;
69185;SDS011;56298;49.246;9.410;2023-10-31T06:56:56;13.35;;;4.15;;
69185;SDS011;56298;49.246;9.410;2023-10-31T06:59:22;16.37;;;8.33;;
69185;SDS011;56298;49.246;9.410;2023-10-31T07:01:47;10.90;;;3.63;;
69185;SDS011;56298;49.246;9.410;2023-10-31T07:04:12;4.83;;;1.20;;
69185;SDS011;56298;49.246;9.410;2023-10-31T07:06:38;22.63;;;9.65;;
69185;SDS011;56298;49.246;9.410;2023-10-31T07:09:03;17.77;;;6.97;;
69185;SDS011;56298;49.246;9.410;2023-10-31T07:11:30;4.53;;;1.00;;
69185;SDS011;56298;49.246;9.410;2023-10-31T07:13:59;3.00;;;0.70;;
69185;SDS011;56298;49.246;9.410;2023-10-31T07:16:27;4.10;;;1.23;;
69185;SDS011;56298;49.246;9.410;2023-10-31T07:18:53;7.38;;;2.92;;
69185;SDS011;56298;49.246;9.410;2023-10-31T07:21:18;31.47;;;13.40;;
69185;SDS011;56298;49.246;9.410;2023-10-31T07:23:43;4.60;;;1.00;;
69185;SDS011;56298;49.246;9.410;2023-10-31T07:26:09;8.57;;;3.47;;
69185;SDS011;56298;49.246;9.410;2023-10-31T07:28:35;6.70;;;2.00;;
69185;SDS011;56298;49.246;9.410;2023-10-31T07:31:00;8.37;;;3.03;;
69185;SDS011;56298;49.246;9.410;2023-10-31T07:33:25;8.50;;;2.97;;
69185;SDS011;56298;49.246;9.410;2023-10-31T07:35:51;10.73;;;4.70;;
69185;SDS011;56298;49.246;9.410;2023-10-31T07:41:05;5.65;;;2.08;;
69185;SDS011;56298;49.246;9.410;2023-10-31T07:43:30;6.00;;;1.48;;
69185;SDS011;56298;49.246;9.410;2023-10-31T07:45:55;18.73;;;9.07;;
69185;SDS011;56298;49.246;9.410;2023-10-31T07:48:20;12.33;;;4.70;;
69185;SDS011;56298;49.246;9.410;2023-10-31T07:50:46;5.23;;;1.33;;
69185;SDS011;56298;49.246;9.410;2023-10-31T07:53:11;5.93;;;1.20;;
69185;SDS011;56298;49.246;9.410;2023-10-31T07:55:36;31.95;;;14.00;;
69185;SDS011;56298;49.246;9.410;2023-10-31T07:58:01;5.67;;;1.50;;
69185;SDS011;56298;49.246;9.410;2023-10-31T08:00:27;7.13;;;2.10;;
69185;SDS011;56298;49.246;9.410;2023-10-31T08:02:52;7.60;;;2.57;;
69185;SDS011;56298;49.246;9.410;2023-10-31T08:05:17;13.03;;;5.63;;
69185;SDS011;56298;49.246;9.410;2023-10-31T08:07:43;5.97;;;1.73;;
69185;SDS011;56298;49.246;9.410;2023-10-31T08:10:09;13.32;;;4.72;;
69185;SDS011;56298;49.246;9.410;2023-10-31T08:12:34;23.83;;;10.18;;
69185;SDS011;56298;49.246;9.410;2023-10-31T08:15:00;85.03;;;34.70;;
69185;SDS011;56298;49.246;9.410;2023-10-31T08:17:26;85.70;;;34.33;;
69185;SDS011;56298;49.246;9.410;2023-10-31T08:19:51;9.20;;;3.23;;
69185;SDS011;56298;49.246;9.410;2023-10-31T08:22:16;23.57;;;9.23;;
69185;SDS011;56298;49.246;9.410;2023-10-31T08:24:42;33.67;;;14.30;;
69185;SDS011;56298;49.246;9.410;2023-10-31T08:27:07;36.50;;;16.17;;
69185;SDS011;56298;49.246;9.410;2023-10-31T08:29:32;18.27;;;6.90;;
69185;SDS011;56298;49.246;9.410;2023-10-31T08:31:58;12.27;;;4.30;;
69185;SDS011;56298;49.246;9.410;2023-10-31T08:34:23;21.33;;;9.63;;
69185;SDS011;56298;49.246;9.410;2023-10-31T08:36:48;23.40;;;10.23;;
69185;SDS011;56298;49.246;9.410;2023-10-31T08:39:14;13.33;;;4.70;;
69185;SDS011;56298;49.246;9.410;2023-10-31T08:41:55;14.40;;;6.10;;
69185;SDS011;56298;49.246;9.410;2023-10-31T08:44:21;13.40;;;4.40;;
69185;SDS011;56298;49.246;9.410;2023-10-31T08:46:46;12.10;;;4.00;;
69185;SDS011;56298;49.246;9.410;2023-10-31T08:49:12;7.83;;;2.30;;
69185;SDS011;56298;49.246;9.410;2023-10-31T08:51:38;12.75;;;4.80;;
69185;SDS011;56298;49.246;9.410;2023-10-31T08:54:03;21.67;;;9.00;;
69185;SDS011;56298;49.246;9.410;2023-10-31T08:56:28;10.37;;;3.73;;
69185;SDS011;56298;49.246;9.410;2023-10-31T08:58:54;20.97;;;7.70;;
69185;SDS011;56298;49.246;9.410;2023-10-31T09:01:19;33.63;;;13.00;;
69185;SDS011;56298;49.246;9.410;2023-10-31T09:03:44;30.23;;;12.60;;
69185;SDS011;56298;49.246;9.410;2023-10-31T09:06:10;19.30;;;7.53;;
69185;SDS011;56298;49.246;9.410;2023-10-31T09:08:35;25.77;;;11.00;;
69185;SDS011;56298;49.246;9.410;2023-10-31T09:11:02;28.13;;;12.45;;
69185;SDS011;56298;49.246;9.410;2023-10-31T09:13:28;31.35;;;11.85;;
69185;SDS011;56298;49.246;9.410;2023-10-31T09:15:54;13.03;;;3.97;;
69185;SDS011;56298;49.246;9.410;2023-10-31T09:18:19;37.50;;;15.87;;
69185;SDS011;56298;49.246;9.410;2023-10-31T09:20:44;67.43;;;26.20;;
69185;SDS011;56298;49.246;9.410;2023-10-31T09:23:09;16.53;;;5.07;;
69185;SDS011;56298;49.246;9.410;2023-10-31T09:25:35;22.53;;;8.07;;
69185;SDS011;56298;49.246;9.410;2023-10-31T09:28:00;14.50;;;4.90;;
69185;SDS011;56298;49.246;9.410;2023-10-31T09:30:25;12.40;;;4.97;;
69185;SDS011;56298;49.246;9.410;2023-10-31T09:32:51;40.08;;;17.33;;
69185;SDS011;56298;49.246;9.410;2023-10-31T09:35:17;31.60;;;13.80;;
69185;SDS011;56298;49.246;9.410;2023-10-31T09:37:42;11.53;;;4.77;;
69185;SDS011;56298;49.246;9.410;2023-10-31T09:40:08;14.77;;;5.70;;
69185;SDS011;56298;49.246;9.410;2023-10-31T09:42:34;19.23;;;8.32;;
69185;SDS011;56298;49.246;9.410;2023-10-31T09:45:00;10.90;;;3.73;;
69185;SDS011;56298;49.246;9.410;2023-10-31T09:47:25;19.23;;;9.73;;
69185;SDS011;56298;49.246;9.410;2023-10-31T09:49:50;8.13;;;3.77;;
69185;SDS011;56298;49.246;9.410;2023-10-31T09:52:16;12.05;;;6.70;;
69185;SDS011;56298;49.246;9.410;2023-10-31T09:54:42;13.17;;;6.03;;
69185;SDS011;56298;49.246;9.410;2023-10-31T09:57:08;7.70;;;1.90;;
69185;SDS011;56298;49.246;9.410;2023-10-31T09:59:34;11.45;;;4.85;;
69185;SDS011;56298;49.246;9.410;2023-10-31T10:01:59;7.78;;;2.40;;
69185;SDS011;56298;49.246;9.410;2023-10-31T10:04:24;6.45;;;1.40;;
69185;SDS011;56298;49.246;9.410;2023-10-31T10:06:52;5.90;;;2.30;;
69185;SDS011;56298;49.246;9.410;2023-10-31T10:09:24;8.32;;;3.50;;
69185;SDS011;56298;49.246;9.410;2023-10-31T10:11:49;8.97;;;3.37;;
69185;SDS011;56298;49.246;9.410;2023-10-31T10:14:16;9.90;;;4.07;;
69185;SDS011;56298;49.246;9.410;2023-10-31T10:16:42;7.63;;;2.97;;
69185;SDS011;56298;49.246;9.410;2023-10-31T10:19:17;6.87;;;2.10;;
69185;SDS011;56298;49.246;9.410;2023-10-31T10:21:48;6.75;;;1.67;;
69185;SDS011;56298;49.246;9.410;2023-10-31T10:24:24;55.83;;;22.00;;
69185;SDS011;56298;49.246;9.410;2023-10-31T10:26:49;19.95;;;9.50;;
69185;SDS011;56298;49.246;9.410;2023-10-31T10:29:16;8.45;;;4.25;;
69185;SDS011;56298;49.246;9.410;2023-10-31T10:31:42;10.60;;;4.80;;
69185;SDS011;56298;49.246;9.410;2023-10-31T10:34:10;17.25;;;7.20;;
69185;SDS011;56298;49.246;9.410;2023-10-31T10:36:38;26.70;;;12.50;;
69185;SDS011;56298;49.246;9.410;2023-10-31T10:39:03;22.63;;;11.00;;
69185;SDS011;56298;49.246;9.410;2023-10-31T10:41:34;11.35;;;4.30;;
69185;SDS011;56298;49.246;9.410;2023-10-31T10:44:04;14.73;;;7.38;;
69185;SDS011;56298;49.246;9.410;2023-10-31T10:46:34;7.63;;;2.90;;
69185;SDS011;56298;49.246;9.410;2023-10-31T10:49:04;10.48;;;3.97;;
69185;SDS011;56298;49.246;9.410;2023-10-31T10:51:43;6.60;;;1.90;;
69185;SDS011;56298;49.246;9.410;2023-10-31T10:54:18;5.50;;;1.83;;
69185;SDS011;56298;49.246;9.410;2023-10-31T10:56:54;7.70;;;1.58;;
69185;SDS011;56298;49.246;9.410;2023-10-31T10:59:27;6.40;;;1.27;;
69185;SDS011;56298;49.246;9.410;2023-10-31T11:01:59;6.43;;;1.65;;
69185;SDS011;56298;49.246;9.410;2023-10-31T11:04:26;9.13;;;1.70;;
69185;SDS011;56298;49.246;9.410;2023-10-31T11:06:51;6.77;;;2.00;;
69185;SDS011;56298;49.246;9.410;2023-10-31T11:09:17;8.82;;;1.58;;
69185;SDS011;56298;49.246;9.410;2023-10-31T11:11:43;7.40;;;2.13;;
69185;SDS011;56298;49.246;9.410;2023-10-31T11:14:13;8.02;;;1.67;;
69185;SDS011;56298;49.246;9.410;2023-10-31T11:16:51;7.63;;;2.20;;
69185;SDS011;56298;49.246;9.410;2023-10-31T11:19:18;6.80;;;1.75;;
69185;SDS011;56298;49.246;9.410;2023-10-31T11:22:00;5.38;;;2.00;;
69185;SDS011;56298;49.246;9.410;2023-10-31T11:24:27;6.15;;;1.40;;
69185;SDS011;56298;49.246;9.410;2023-10-31T11:26:53;6.57;;;1.60;;
69185;SDS011;56298;49.246;9.410;2023-10-31T11:29:23;7.88;;;1.67;;
69185;SDS011;56298;49.246;9.410;2023-10-31T11:31:49;5.23;;;1.27;;
69185;SDS011;56298;49.246;9.410;2023-10-31T11:34:18;7.60;;;1.10;;
69185;SDS011;56298;49.246;9.410;2023-10-31T11:36:45;7.43;;;1.38;;
69185;SDS011;56298;49.246;9.410;2023-10-31T11:39:12;6.75;;;1.30;;
69185;SDS011;56298;49.246;9.410;2023-10-31T11:41:39;5.25;;;1.08;;
69185;SDS011;56298;49.246;9.410;2023-10-31T11:44:05;6.23;;;1.03;;
69185;SDS011;56298;49.246;9.410;2023-10-31T11:46:30;6.37;;;1.10;;
69185;SDS011;56298;49.246;9.410;2023-10-31T11:48:56;5.77;;;1.10;;
69185;SDS011;56298;49.246;9.410;2023-10-31T11:51:22;4.10;;;0.80;;
69185;SDS011;56298;49.246;9.410;2023-10-31T11:53:48;8.03;;;1.03;;
69185;SDS011;56298;49.246;9.410;2023-10-31T11:56:14;6.75;;;1.10;;
69185;SDS011;56298;49.246;9.410;2023-10-31T11:58:40;5.33;;;1.27;;
69185;SDS011;56298;49.246;9.410;2023-10-31T12:01:07;5.78;;;1.13;;
69185;SDS011;56298;49.246;9.410;2023-10-31T12:03:40;5.47;;;1.08;;
69185;SDS011;56298;49.246;9.410;2023-10-31T12:06:06;5.03;;;1.10;;
69185;SDS011;56298;49.246;9.410;2023-10-31T12:08:33;7.30;;;1.17;;
69185;SDS011;56298;49.246;9.410;2023-10-31T12:11:04;6.47;;;1.40;;
69185;SDS011;56298;49.246;9.410;2023-10-31T12:13:33;7.60;;;1.20;;
69185;SDS011;56298;49.246;9.410;2023-10-31T12:15:59;7.20;;;1.40;;
69185;SDS011;56298;49.246;9.410;2023-10-31T12:18:28;7.47;;;1.70;;
69185;SDS011;56298;49.246;9.410;2023-10-31T12:20:54;8.23;;;1.70;;
69185;SDS011;56298;49.246;9.410;2023-10-31T12:23:19;7.63;;;1.60;;
69185;SDS011;56298;49.246;9.410;2023-10-31T12:25:45;7.70;;;1.63;;
69185;SDS011;56298;49.246;9.410;2023-10-31T12:28:15;8.43;;;1.80;;
69185;SDS011;56298;49.246;9.410;2023-10-31T12:30:45;6.20;;;1.40;;
69185;SDS011;56298;49.246;9.410;2023-10-31T12:33:14;7.10;;;1.80;;
69185;SDS011;56298;49.246;9.410;2023-10-31T12:35:40;5.87;;;1.53;;
69185;SDS011;56298;49.246;9.410;2023-10-31T12:38:06;6.07;;;1.33;;
69185;SDS011;56298;49.246;9.410;2023-10-31T12:40:32;6.70;;;1.48;;
69185;SDS011;56298;49.246;9.410;2023-10-31T12:42:58;5.80;;;1.10;;
69185;SDS011;56298;49.246;9.410;2023-10-31T12:45:24;7.47;;;1.10;;
69185;SDS011;56298;49.246;9.410;2023-10-31T12:48:02;6.43;;;1.30;;
69185;SDS011;56298;49.246;9.410;2023-10-31T12:50:32;5.68;;;1.10;;
69185;SDS011;56298;49.246;9.410;2023-10-31T12:52:58;6.20;;;1.08;;
69185;SDS011;56298;49.246;9.410;2023-10-31T12:55:25;6.00;;;0.93;;
69185;SDS011;56298;49.246;9.410;2023-10-31T12:57:52;5.27;;;1.10;;
69185;SDS011;56298;49.246;9.410;2023-10-31T13:00:19;6.10;;;1.20;;
69185;SDS011;56298;49.246;9.410;2023-10-31T13:02:51;5.40;;;1.00;;
69185;SDS011;56298;49.246;9.410;2023-10-31T13:05:24;5.18;;;1.30;;
69185;SDS011;56298;49.246;9.410;2023-10-31T13:07:51;8.88;;;1.38;;
69185;SDS011;56298;49.246;9.410;2023-10-31T13:10:18;6.90;;;1.00;;
69185;SDS011;56298;49.246;9.410;2023-10-31T13:12:53;4.55;;;0.95;;
69185;SDS011;56298;49.246;9.410;2023-10-31T13:15:20;3.58;;;0.80;;
69185;SDS011;56298;49.246;9.410;2023-10-31T13:17:50;5.00;;;1.00;;
69185;SDS011;56298;49.246;9.410;2023-10-31T13:20:17;4.78;;;1.00;;
69185;SDS011;56298;49.246;9.410;2023-10-31T13:22:44;5.18;;;1.00;;
69185;SDS011;56298;49.246;9.410;2023-10-31T13:25:10;10.77;;;2.77;;
69185;SDS011;56298;49.246;9.410;2023-10-31T13:27:36;29.93;;;10.40;;
69185;SDS011;56298;49.246;9.410;2023-10-31T13:30:03;14.93;;;5.03;;
69185;SDS011;56298;49.246;9.410;2023-10-31T13:32:33;43.20;;;17.92;;
69185;SDS011;56298;49.246;9.410;2023-10-31T13:34:58;74.55;;;29.30;;
69185;SDS011;56298;49.246;9.410;2023-10-31T13:37:24;31.00;;;11.60;;
69185;SDS011;56298;49.246;9.410;2023-10-31T13:39:50;34.50;;;13.03;;
69185;SDS011;56298;49.246;9.410;2023-10-31T13:42:15;75.20;;;31.17;;
69185;SDS011;56298;49.246;9.410;2023-10-31T13:44:41;59.07;;;24.83;;
69185;SDS011;56298;49.246;9.410;2023-10-31T13:47:06;28.65;;;11.80;;
69185;SDS011;56298;49.246;9.410;2023-10-31T13:49:32;23.40;;;8.23;;
69185;SDS011;56298;49.246;9.410;2023-10-31T13:51:57;24.23;;;10.03;;
69185;SDS011;56298;49.246;9.410;2023-10-31T13:54:22;61.47;;;27.93;;
69185;SDS011;56298;49.246;9.410;2023-10-31T13:56:48;14.10;;;6.57;;
69185;SDS011;56298;49.246;9.410;2023-10-31T13:59:13;26.10;;;12.93;;
69185;SDS011;56298;49.246;9.410;2023-10-31T14:01:40;8.52;;;3.47;;
69185;SDS011;56298;49.246;9.410;2023-10-31T14:04:07;9.83;;;4.07;;
69185;SDS011;56298;49.246;9.410;2023-10-31T14:06:33;11.05;;;4.63;;
69185;SDS011;56298;49.246;9.410;2023-10-31T14:08:59;23.23;;;11.27;;
69185;SDS011;56298;49.246;9.410;2023-10-31T14:11:25;39.22;;;15.23;;
69185;SDS011;56298;49.246;9.410;2023-10-31T14:13:51;22.90;;;9.67;;
69185;SDS011;56298;49.246;9.410;2023-10-31T14:16:18;9.90;;;4.07;;
69185;SDS011;56298;49.246;9.410;2023-10-31T14:18:51;6.95;;;2.15;;
69185;SDS011;56298;49.246;9.410;2023-10-31T14:21:16;19.77;;;9.00;;
69185;SDS011;56298;49.246;9.410;2023-10-31T14:23:43;6.20;;;1.83;;
69185;SDS011;56298;49.246;9.410;2023-10-31T14:26:10;4.10;;;0.95;;
69185;SDS011;56298;49.246;9.410;2023-10-31T14:28:37;5.38;;;1.30;;
69185;SDS011;56298;49.246;9.410;2023-10-31T14:31:04;5.60;;;1.35;;
69185;SDS011;56298;49.246;9.410;2023-10-31T14:33:32;5.32;;;1.40;;
69185;SDS011;56298;49.246;9.410;2023-10-31T14:35:57;6.23;;;2.03;;
69185;SDS011;56298;49.246;9.410;2023-10-31T14:38:23;4.60;;;1.20;;
69185;SDS011;56298;49.246;9.410;2023-10-31T14:40:48;4.30;;;1.10;;